createdAt,value
2023-03-16T00:02:10.424Z,93.20
2023-03-16T00:04:38.158Z,93.10
2023-03-16T00:07:11.422Z,93.00
2023-03-16T00:09:42.832Z,93.20
2023-03-16T00:12:19.735Z,93.30
2023-03-16T00:14:48.762Z,93.30
2023-03-16T00:17:18.963Z,93.30
2023-03-16T00:19:55.503Z,93.50
2023-03-16T00:22:25.745Z,93.60
2023-03-16T00:24:53.232Z,93.60
2023-03-16T00:27:22.696Z,93.50
2023-03-16T00:29:56.728Z,93.60
2023-03-16T00:32:31.833Z,93.50
2023-03-16T00:34:59.808Z,93.70
2023-03-16T00:37:28.077Z,93.70
2023-03-16T00:39:56.424Z,93.70
2023-03-16T00:42:28.123Z,93.60
2023-03-16T00:44:57.639Z,93.60
2023-03-16T00:47:28.507Z,93.70
2023-03-16T00:49:55.878Z,93.70
2023-03-16T00:52:23.600Z,93.70
2023-03-16T00:54:54.304Z,93.80
2023-03-16T00:57:24.689Z,93.90
2023-03-16T00:59:52.474Z,93.90
2023-03-16T01:02:23.562Z,93.90
2023-03-16T01:04:52.032Z,94.40
2023-03-16T01:07:19.481Z,94.00
2023-03-16T01:09:46.460Z,94.00
2023-03-16T01:12:17.553Z,94.00
2023-03-16T01:14:46.003Z,94.10
2023-03-16T01:17:14.160Z,94.00
2023-03-16T01:19:42.050Z,94.00
2023-03-16T01:22:10.411Z,94.00
2023-03-16T01:24:39.983Z,94.00
2023-03-16T01:27:07.791Z,94.10
2023-03-16T01:29:35.673Z,94.00
2023-03-16T01:32:04.367Z,94.00
2023-03-16T01:34:32.012Z,93.90
2023-03-16T01:37:00.884Z,94.00
2023-03-16T01:39:36.104Z,94.00
2023-03-16T01:42:03.702Z,94.00
2023-03-16T01:44:55.130Z,94.00
2023-03-16T01:47:24.299Z,94.10
2023-03-16T01:49:56.492Z,93.90
2023-03-16T01:52:33.413Z,93.90
2023-03-16T01:55:08.896Z,93.90
2023-03-16T01:57:42.562Z,93.90
2023-03-16T02:00:23.581Z,93.90
2023-03-16T02:03:08.513Z,94.00
2023-03-16T02:05:49.140Z,94.00
2023-03-16T02:08:17.873Z,93.90
2023-03-16T02:10:45.779Z,93.80
2023-03-16T02:13:12.947Z,93.90
2023-03-16T02:15:40.354Z,93.80
2023-03-16T02:18:08.941Z,93.80
2023-03-16T02:20:42.972Z,93.80
2023-03-16T02:23:21.014Z,93.70
2023-03-16T02:26:03.434Z,93.80
2023-03-16T02:28:58.289Z,93.70
2023-03-16T02:31:25.549Z,93.70
2023-03-16T02:33:54.256Z,93.70
2023-03-16T02:36:21.469Z,93.70
2023-03-16T02:38:48.350Z,93.70
2023-03-16T02:41:20.601Z,93.70
2023-03-16T02:44:10.824Z,94.00
2023-03-16T02:46:39.222Z,93.80
2023-03-16T02:49:38.941Z,93.70
2023-03-16T02:52:07.955Z,93.80
2023-03-16T02:54:34.930Z,93.80
2023-03-16T02:57:01.946Z,93.80
2023-03-16T02:59:30.213Z,93.80
2023-03-16T03:01:57.860Z,93.80
2023-03-16T03:04:24.984Z,93.80
2023-03-16T03:06:52.312Z,93.90
2023-03-16T03:09:19.486Z,93.90
2023-03-16T03:11:47.960Z,93.80
2023-03-16T03:14:16.766Z,94.00
2023-03-16T03:16:46.864Z,94.10
2023-03-16T03:19:15.510Z,94.00
2023-03-16T03:21:42.412Z,94.10
2023-03-16T03:24:09.908Z,94.10
2023-03-16T03:26:40.876Z,94.10
2023-03-16T03:29:15.579Z,94.10
2023-03-16T03:31:42.594Z,94.10
2023-03-16T03:34:09.644Z,94.10
2023-03-16T03:36:36.601Z,94.20
2023-03-16T03:39:06.374Z,94.20
2023-03-16T03:41:34.888Z,94.20
2023-03-16T03:44:04.921Z,94.40
2023-03-16T03:46:34.066Z,94.20
2023-03-16T03:49:03.826Z,94.10
2023-03-16T03:51:33.889Z,94.20
2023-03-16T03:54:08.161Z,94.10
2023-03-16T03:56:55.326Z,94.20
2023-03-16T03:59:22.755Z,94.10
2023-03-16T04:02:05.789Z,94.00
2023-03-16T04:04:42.839Z,94.00
2023-03-16T04:07:12.648Z,93.90
2023-03-16T04:09:41.944Z,93.90
2023-03-16T04:12:15.368Z,93.80
2023-03-16T04:14:43.434Z,93.80
2023-03-16T04:17:10.519Z,93.90
2023-03-16T04:19:39.360Z,93.90
2023-03-16T04:22:11.202Z,93.90
2023-03-16T04:24:38.192Z,93.90
2023-03-16T04:27:05.222Z,93.80
2023-03-16T04:29:32.882Z,94.20
2023-03-16T04:31:59.795Z,94.40
2023-03-16T04:34:28.704Z,94.30
2023-03-16T04:36:59.888Z,94.30
2023-03-16T04:39:27.086Z,94.20
2023-03-16T04:41:54.798Z,94.20
2023-03-16T04:44:26.130Z,94.10
2023-03-16T04:46:53.596Z,94.20
2023-03-16T04:49:22.368Z,94.20
2023-03-16T04:51:49.290Z,94.40
2023-03-16T04:54:19.247Z,94.30
2023-03-16T04:56:46.215Z,94.20
2023-03-16T04:59:33.721Z,94.20
2023-03-16T05:02:08.209Z,94.10
2023-03-16T05:04:35.705Z,94.10
2023-03-16T05:07:03.289Z,94.10
2023-03-16T05:09:34.894Z,94.10
2023-03-16T05:12:01.877Z,94.00
2023-03-16T05:14:29.945Z,94.00
2023-03-16T05:17:14.864Z,94.00
2023-03-16T05:19:43.209Z,94.00
2023-03-16T05:22:10.663Z,94.00
2023-03-16T05:24:46.989Z,94.00
2023-03-16T05:27:14.111Z,93.90
2023-03-16T05:29:45.915Z,93.90
2023-03-16T05:32:13.684Z,94.30
2023-03-16T05:34:43.325Z,94.10
2023-03-16T05:37:11.013Z,94.20
2023-03-16T05:39:37.917Z,94.30
2023-03-16T05:42:06.018Z,94.70
2023-03-16T05:44:41.474Z,94.90
2023-03-16T05:47:08.622Z,95.20
2023-03-16T05:49:40.335Z,95.30
2023-03-16T05:52:12.988Z,95.50
2023-03-16T05:54:39.968Z,95.50
2023-03-16T05:57:09.638Z,95.40
2023-03-16T05:59:37.456Z,95.50
2023-03-16T06:02:05.222Z,95.50
2023-03-16T06:04:32.733Z,95.60
2023-03-16T06:07:00.329Z,95.50
2023-03-16T06:09:29.231Z,95.50
2023-03-16T06:11:56.195Z,95.50
2023-03-16T06:14:23.962Z,95.60
2023-03-16T06:16:52.831Z,95.60
2023-03-16T06:19:20.262Z,95.50
2023-03-16T06:21:51.744Z,95.40
2023-03-16T06:24:18.918Z,95.40
2023-03-16T06:26:45.818Z,95.40
2023-03-16T06:29:13.677Z,95.40
2023-03-16T06:31:41.824Z,95.30
2023-03-16T06:34:08.981Z,95.30
2023-03-16T06:36:38.848Z,95.30
2023-03-16T06:39:09.512Z,95.30
2023-03-16T06:41:42.736Z,95.30
2023-03-16T06:44:11.554Z,95.20
2023-03-16T06:46:44.011Z,95.20
2023-03-16T06:49:11.311Z,95.20
2023-03-16T06:51:38.831Z,95.20
2023-03-16T06:54:05.687Z,95.20
2023-03-16T06:56:36.835Z,95.20
2023-03-16T06:59:04.197Z,95.20
2023-03-16T07:01:31.759Z,95.10
2023-03-16T07:03:58.816Z,95.10
2023-03-16T07:06:29.984Z,95.00
2023-03-16T07:08:56.868Z,95.00
2023-03-16T07:11:24.592Z,95.00
2023-03-16T07:13:51.781Z,95.00
2023-03-16T07:16:20.409Z,94.90
2023-03-16T07:18:48.146Z,94.80
2023-03-16T07:21:16.885Z,94.80
2023-03-16T07:23:45.254Z,94.80
2023-03-16T07:26:14.931Z,94.70
2023-03-16T07:28:50.680Z,94.60
2023-03-16T07:31:17.632Z,94.60
2023-03-16T07:33:45.785Z,94.60
2023-03-16T07:36:18.483Z,94.50
2023-03-16T07:38:51.598Z,94.50
2023-03-16T07:41:18.623Z,94.40
2023-03-16T07:43:46.177Z,94.40
2023-03-16T07:46:15.279Z,94.10
2023-03-16T07:48:44.732Z,94.00
2023-03-16T07:51:13.974Z,94.10
2023-03-16T07:53:42.276Z,94.10
2023-03-16T07:56:21.428Z,94.00
2023-03-16T07:58:52.139Z,94.00
2023-03-16T08:01:19.108Z,93.90
2023-03-16T08:03:47.065Z,93.90
2023-03-16T08:06:14.058Z,93.70
2023-03-16T08:08:41.041Z,93.60
2023-03-16T08:11:11.281Z,93.60
2023-03-16T08:13:47.275Z,93.50
2023-03-16T08:16:15.239Z,93.50
2023-03-16T08:18:44.610Z,93.70
2023-03-16T08:21:11.596Z,93.60
2023-03-16T08:23:38.554Z,93.50
2023-03-16T08:26:15.218Z,93.40
2023-03-16T08:28:42.341Z,93.30
2023-03-16T08:31:16.001Z,93.10
2023-03-16T08:33:52.168Z,92.80
2023-03-16T08:36:22.846Z,92.90
2023-03-16T08:39:06.207Z,92.60
2023-03-16T08:41:38.029Z,92.40
2023-03-16T08:44:10.769Z,92.20
2023-03-16T08:46:37.997Z,92.10
2023-03-16T08:49:06.732Z,91.80
2023-03-16T08:51:34.275Z,91.80
2023-03-16T08:54:01.151Z,91.70
2023-03-16T08:56:30.421Z,91.70
2023-03-16T08:58:57.522Z,91.70
2023-03-16T09:01:25.760Z,91.60
2023-03-16T09:03:52.903Z,91.50
2023-03-16T09:06:19.995Z,91.70
2023-03-16T09:08:47.735Z,91.60
2023-03-16T09:11:18.801Z,91.70
2023-03-16T09:13:47.269Z,91.50
2023-03-16T09:16:15.673Z,91.40
2023-03-16T09:18:43.397Z,91.30
2023-03-16T09:21:15.415Z,90.60
2023-03-16T09:23:43.042Z,90.60
2023-03-16T09:26:12.632Z,90.90
2023-03-16T09:28:42.168Z,90.50
2023-03-16T09:31:16.856Z,90.60
2023-03-16T09:33:43.805Z,90.30
2023-03-16T09:36:14.142Z,90.20
2023-03-16T09:38:43.841Z,90.40
2023-03-16T09:41:38.271Z,90.50
2023-03-16T09:44:21.988Z,90.20
2023-03-16T09:46:50.805Z,87.90
2023-03-16T09:49:21.080Z,89.20
2023-03-16T09:52:20.861Z,89.30
2023-03-16T09:55:05.311Z,88.00
2023-03-16T09:57:39.688Z,88.00
2023-03-16T10:00:21.925Z,87.20
2023-03-16T10:03:19.788Z,86.90
2023-03-16T10:05:52.400Z,87.50
2023-03-16T10:08:25.976Z,86.30
2023-03-16T10:11:22.178Z,86.50
2023-03-16T10:14:11.545Z,84.30
2023-03-16T10:16:47.628Z,84.60
2023-03-16T10:19:25.914Z,85.50
2023-03-16T10:21:56.249Z,85.10
2023-03-16T10:24:53.244Z,84.80
2023-03-16T10:27:31.543Z,84.70
2023-03-16T10:30:01.225Z,84.20
2023-03-16T10:32:34.600Z,85.70
2023-03-16T10:35:44.045Z,84.20
2023-03-16T10:38:27.793Z,82.40
2023-03-16T10:40:54.929Z,80.70
2023-03-16T10:43:22.724Z,82.60
2023-03-16T10:45:49.940Z,81.60
2023-03-16T10:48:21.050Z,82.60
2023-03-16T10:50:55.077Z,81.90
2023-03-16T10:53:26.528Z,80.30
2023-03-16T10:55:59.775Z,78.50
2023-03-16T10:58:30.837Z,80.50
2023-03-16T11:00:58.286Z,80.50
2023-03-16T11:03:32.394Z,81.00
2023-03-16T11:06:04.446Z,78.40
2023-03-16T11:08:38.781Z,76.80
2023-03-16T11:11:14.758Z,75.70
2023-03-16T11:13:47.091Z,75.20
2023-03-16T11:16:38.197Z,74.90
2023-03-16T11:19:33.653Z,74.70
2023-03-16T11:22:17.444Z,73.40
2023-03-16T11:25:03.065Z,75.00
2023-03-16T11:27:49.656Z,75.60
2023-03-16T11:30:31.374Z,74.70
2023-03-16T11:33:00.501Z,75.20
2023-03-16T11:36:13.838Z,76.10
2023-03-16T11:39:19.260Z,73.70
2023-03-16T11:42:10.078Z,72.90
2023-03-16T11:44:48.843Z,72.30
2023-03-16T11:47:51.749Z,67.80
2023-03-16T11:50:25.389Z,70.50
2023-03-16T11:53:38.307Z,68.80
2023-03-16T11:56:22.378Z,67.50
2023-03-16T11:59:18.224Z,68.50
2023-03-16T12:02:29.157Z,69.90
2023-03-16T12:05:44.336Z,68.20
2023-03-16T12:08:30.625Z,68.20
2023-03-16T12:11:05.960Z,68.40
2023-03-16T12:14:09.113Z,69.90
2023-03-16T12:17:08.333Z,70.00
2023-03-16T12:19:49.351Z,69.30
2023-03-16T12:22:30.906Z,69.20
2023-03-16T12:24:57.863Z,69.80
2023-03-16T12:27:33.761Z,69.90
2023-03-16T12:31:14.154Z,70.20
2023-03-16T12:33:59.818Z,69.00
2023-03-16T12:36:49.034Z,70.30
2023-03-16T12:39:46.818Z,69.60
2023-03-16T12:42:37.802Z,70.40
2023-03-16T12:45:41.119Z,67.30
2023-03-16T12:48:38.893Z,67.60
2023-03-16T12:51:06.249Z,68.60
2023-03-16T12:53:47.706Z,66.80
2023-03-16T12:56:28.246Z,67.90
2023-03-16T12:58:58.935Z,69.40
2023-03-16T13:01:45.933Z,68.40
2023-03-16T13:04:19.359Z,68.60
2023-03-16T13:07:01.062Z,67.80
2023-03-16T13:09:31.996Z,67.60
2023-03-16T13:12:04.949Z,67.50
2023-03-16T13:14:44.661Z,66.50
2023-03-16T13:17:17.595Z,67.40
2023-03-16T13:20:06.798Z,67.00
2023-03-16T13:22:51.198Z,67.90
2023-03-16T13:25:39.697Z,66.80
2023-03-16T13:28:12.998Z,62.30
2023-03-16T13:30:48.635Z,61.00
2023-03-16T13:33:31.398Z,60.20
2023-03-16T13:36:00.238Z,58.70
2023-03-16T13:38:28.653Z,58.70
2023-03-16T13:41:18.787Z,60.60
2023-03-16T13:43:46.811Z,61.30
2023-03-16T13:46:20.514Z,57.80
2023-03-16T13:48:48.872Z,57.00
2023-03-16T13:51:22.638Z,58.50
2023-03-16T13:53:50.389Z,57.90
2023-03-16T13:56:26.797Z,57.20
2023-03-16T13:58:54.555Z,58.50
2023-03-16T14:01:32.680Z,57.00
2023-03-16T14:04:08.425Z,55.90
2023-03-16T14:06:35.839Z,54.90
2023-03-16T14:09:06.648Z,54.30
2023-03-16T14:11:33.735Z,56.00
2023-03-16T14:14:02.008Z,57.80
2023-03-16T14:16:31.912Z,54.70
2023-03-16T14:19:17.021Z,55.20
2023-03-16T14:21:46.128Z,54.30
2023-03-16T14:24:38.212Z,53.90
2023-03-16T14:27:23.200Z,55.60
2023-03-16T14:30:00.565Z,55.40
2023-03-16T14:32:32.307Z,55.20
2023-03-16T14:35:18.251Z,54.70
2023-03-16T14:37:45.250Z,51.00
2023-03-16T14:40:32.161Z,51.60
2023-03-16T14:43:04.341Z,52.90
2023-03-16T14:45:37.397Z,51.80
2023-03-16T14:48:17.030Z,52.90
2023-03-16T14:50:44.482Z,54.10
2023-03-16T14:53:11.796Z,53.60
2023-03-16T14:55:38.898Z,52.40
2023-03-16T14:58:05.801Z,52.30
2023-03-16T15:00:42.704Z,53.80
2023-03-16T15:03:17.718Z,53.00
2023-03-16T15:05:49.522Z,51.90
2023-03-16T15:08:26.595Z,53.00
2023-03-16T15:10:55.748Z,53.10
2023-03-16T15:13:42.458Z,53.10
2023-03-16T15:16:14.337Z,52.50
2023-03-16T15:18:42.640Z,52.30
2023-03-16T15:21:20.876Z,51.50
2023-03-16T15:23:48.370Z,50.90
2023-03-16T15:26:22.376Z,52.10
2023-03-16T15:28:51.074Z,50.40
2023-03-16T15:31:17.981Z,51.30
2023-03-16T15:33:45.792Z,51.60
2023-03-16T15:36:21.233Z,49.80
2023-03-16T15:38:52.817Z,49.30
2023-03-16T15:41:19.808Z,47.40
2023-03-16T15:43:47.467Z,47.50
2023-03-16T15:46:15.019Z,47.70
2023-03-16T15:48:42.461Z,49.10
2023-03-16T15:51:25.634Z,49.70
2023-03-16T15:54:00.118Z,48.50
2023-03-16T15:56:32.365Z,48.70
2023-03-16T15:59:04.905Z,47.70
2023-03-16T16:01:45.078Z,47.60
2023-03-16T16:04:19.855Z,48.50
2023-03-16T16:06:48.376Z,49.00
2023-03-16T16:09:15.744Z,49.20
2023-03-16T16:11:42.858Z,49.80
2023-03-16T16:14:15.594Z,49.80
2023-03-16T16:16:45.819Z,50.30
2023-03-16T16:19:16.534Z,50.80
2023-03-16T16:21:43.975Z,50.80
2023-03-16T16:24:11.478Z,51.20
2023-03-16T16:26:53.212Z,51.50
2023-03-16T16:29:30.659Z,51.80
2023-03-16T16:31:57.816Z,51.20
2023-03-16T16:34:25.658Z,51.70
2023-03-16T16:36:54.690Z,51.90
2023-03-16T16:39:22.269Z,52.30
2023-03-16T16:41:51.783Z,52.40
2023-03-16T16:44:23.569Z,53.00
2023-03-16T16:46:51.320Z,53.00
2023-03-16T16:49:28.272Z,53.40
2023-03-16T16:51:55.379Z,53.50
2023-03-16T16:54:26.196Z,54.00
2023-03-16T16:56:55.553Z,54.20
2023-03-16T16:59:31.257Z,54.40
2023-03-16T17:02:00.714Z,54.90
2023-03-16T17:04:29.857Z,55.00
2023-03-16T17:07:00.817Z,55.20
2023-03-16T17:09:30.057Z,55.50
2023-03-16T17:12:00.968Z,56.10
2023-03-16T17:14:28.317Z,56.60
2023-03-16T17:16:55.779Z,57.20
2023-03-16T17:19:27.178Z,57.50
2023-03-16T17:21:57.350Z,58.00
2023-03-16T17:24:24.783Z,58.50
2023-03-16T17:26:57.533Z,59.10
2023-03-16T17:29:33.620Z,59.50
2023-03-16T17:32:03.584Z,59.80
2023-03-16T17:34:33.138Z,60.10
2023-03-16T17:37:00.228Z,60.70
2023-03-16T17:39:33.737Z,60.90
2023-03-16T17:42:18.618Z,61.30
2023-03-16T17:44:48.952Z,61.40
2023-03-16T17:47:26.336Z,61.50
2023-03-16T17:49:53.875Z,61.90
2023-03-16T17:52:23.946Z,61.70
2023-03-16T17:54:52.675Z,61.60
2023-03-16T17:57:24.836Z,61.80
2023-03-16T17:59:52.156Z,61.90
2023-03-16T18:02:49.901Z,61.60
2023-03-16T18:05:25.036Z,61.10
2023-03-16T18:07:52.710Z,61.20
2023-03-16T18:10:29.420Z,60.90
2023-03-16T18:13:05.387Z,61.10
2023-03-16T18:15:36.454Z,61.20
2023-03-16T18:18:07.189Z,61.20
2023-03-16T18:20:36.551Z,60.70
2023-03-16T18:23:16.452Z,60.40
2023-03-16T18:25:43.682Z,60.30
2023-03-16T18:28:13.843Z,60.50
2023-03-16T18:30:47.501Z,60.30
2023-03-16T18:33:23.488Z,60.50
2023-03-16T18:35:53.199Z,60.80
2023-03-16T18:38:36.104Z,61.10
2023-03-16T18:41:20.873Z,61.40
2023-03-16T18:43:48.470Z,61.60
2023-03-16T18:46:25.901Z,61.80
2023-03-16T18:48:56.889Z,62.50
2023-03-16T18:51:24.133Z,62.70
2023-03-16T18:53:51.277Z,63.10
2023-03-16T18:56:22.710Z,63.30
2023-03-16T18:58:51.170Z,63.40
2023-03-16T19:01:28.194Z,63.90
2023-03-16T19:03:56.388Z,63.80
2023-03-16T19:06:31.496Z,63.60
2023-03-16T19:09:14.476Z,64.10
2023-03-16T19:11:43.909Z,64.10
2023-03-16T19:14:24.436Z,64.80
2023-03-16T19:16:53.463Z,64.80
2023-03-16T19:19:22.637Z,65.20
2023-03-16T19:21:53.713Z,65.30
2023-03-16T19:24:33.281Z,65.70
2023-03-16T19:27:01.081Z,65.80
2023-03-16T19:29:36.127Z,66.00
2023-03-16T19:32:03.159Z,66.20
2023-03-16T19:34:30.129Z,66.40
2023-03-16T19:36:57.002Z,66.50
2023-03-16T19:39:23.943Z,66.60
2023-03-16T19:41:57.505Z,66.80
2023-03-16T19:44:27.503Z,67.80
2023-03-16T19:46:55.072Z,66.90
2023-03-16T19:49:27.382Z,66.70
2023-03-16T19:51:55.761Z,66.50
2023-03-16T19:54:32.476Z,66.60
2023-03-16T19:57:07.109Z,66.40
2023-03-16T19:59:35.197Z,66.40
2023-03-16T20:02:02.378Z,66.10
2023-03-16T20:04:29.324Z,66.20
2023-03-16T20:06:56.230Z,65.80
2023-03-16T20:09:23.156Z,65.90
2023-03-16T20:11:50.289Z,66.00
2023-03-16T20:14:33.093Z,65.60
2023-03-16T20:17:00.949Z,65.00
2023-03-16T20:19:28.544Z,64.90
2023-03-16T20:21:55.461Z,64.70
2023-03-16T20:24:22.356Z,64.60
2023-03-16T20:26:51.503Z,64.70
2023-03-16T20:29:31.226Z,64.80
2023-03-16T20:31:58.977Z,64.60
2023-03-16T20:34:29.501Z,64.60
2023-03-16T20:36:56.849Z,64.20
2023-03-16T20:39:24.199Z,64.20
2023-03-16T20:41:52.590Z,64.40
2023-03-16T20:44:21.815Z,64.30
2023-03-16T20:46:48.766Z,64.30
2023-03-16T20:49:21.882Z,64.00
2023-03-16T20:51:49.949Z,64.20
2023-03-16T20:54:17.682Z,64.40
2023-03-16T20:56:44.804Z,64.70
2023-03-16T20:59:23.793Z,64.30
2023-03-16T21:01:51.840Z,64.80
2023-03-16T21:04:27.966Z,64.40
2023-03-16T21:06:55.972Z,64.60
2023-03-16T21:09:22.901Z,64.70
2023-03-16T21:11:49.955Z,64.30
2023-03-16T21:14:21.952Z,64.50
2023-03-16T21:16:49.741Z,64.50
2023-03-16T21:19:23.093Z,64.70
2023-03-16T21:21:50.799Z,64.60
2023-03-16T21:24:17.701Z,64.60
2023-03-16T21:26:47.394Z,64.80
2023-03-16T21:29:23.732Z,64.80
2023-03-16T21:31:51.783Z,64.60
2023-03-16T21:34:25.348Z,65.00
2023-03-16T21:36:52.360Z,65.30
2023-03-16T21:39:23.719Z,65.10
2023-03-16T21:41:51.132Z,65.20
2023-03-16T21:44:18.460Z,65.20
2023-03-16T21:46:47.161Z,65.30
2023-03-16T21:49:15.704Z,65.40
2023-03-16T21:51:43.133Z,65.30
2023-03-16T21:54:19.420Z,65.30
2023-03-16T21:56:47.755Z,65.40
2023-03-16T21:59:14.652Z,65.20
2023-03-16T22:01:58.335Z,65.60
2023-03-16T22:04:27.540Z,66.30
2023-03-16T22:06:54.422Z,66.30
2023-03-16T22:09:22.653Z,66.40
2023-03-16T22:11:49.743Z,66.60
2023-03-16T22:14:16.631Z,66.40
2023-03-16T22:16:43.735Z,66.70
2023-03-16T22:19:14.392Z,66.90
2023-03-16T22:21:43.866Z,66.90
2023-03-16T22:24:20.999Z,67.20
2023-03-16T22:26:50.040Z,67.10
2023-03-16T22:29:28.194Z,67.20
2023-03-16T22:32:01.094Z,67.10
2023-03-16T22:34:48.808Z,67.20
2023-03-16T22:37:21.037Z,67.30
2023-03-16T22:39:49.571Z,67.00
2023-03-16T22:42:38.111Z,67.60
2023-03-16T22:45:22.673Z,67.80
2023-03-16T22:47:49.613Z,67.50
2023-03-16T22:50:19.245Z,67.60
2023-03-16T22:52:50.086Z,67.60
2023-03-16T22:55:22.702Z,67.60
2023-03-16T22:58:12.026Z,67.90
2023-03-16T23:00:39.511Z,68.10
2023-03-16T23:03:18.567Z,67.80
2023-03-16T23:05:46.273Z,68.00
2023-03-16T23:08:17.564Z,68.10
2023-03-16T23:10:45.324Z,68.30
2023-03-16T23:13:16.661Z,68.40
2023-03-16T23:15:47.474Z,68.30
2023-03-16T23:18:25.191Z,68.10
2023-03-16T23:20:52.514Z,67.90
2023-03-16T23:23:19.749Z,67.80
2023-03-16T23:25:48.003Z,67.70
2023-03-16T23:28:20.344Z,67.90
2023-03-16T23:30:47.573Z,68.00
2023-03-16T23:33:15.243Z,68.20
2023-03-16T23:35:46.293Z,68.30
2023-03-16T23:38:13.445Z,68.20
2023-03-16T23:40:40.339Z,68.30
2023-03-16T23:43:08.421Z,68.30
2023-03-16T23:45:42.447Z,68.60
2023-03-16T23:48:16.786Z,68.40
2023-03-16T23:50:45.538Z,68.60
2023-03-16T23:53:16.030Z,68.90
2023-03-16T23:55:43.805Z,68.60
2023-03-16T23:58:11.908Z,68.50
